createdAt,value
2022-09-07T04:00:55.959Z,3.90
2022-09-07T04:03:25.344Z,4.00
2022-09-07T04:05:54.221Z,4.00
2022-09-07T04:08:27.818Z,2.70
2022-09-07T04:10:57.864Z,3.20
2022-09-07T04:13:27.719Z,2.50
2022-09-07T04:15:57.272Z,3.50
2022-09-07T04:18:26.675Z,2.20
2022-09-07T04:20:59.563Z,2.70
2022-09-07T04:23:28.049Z,3.20
2022-09-07T04:25:56.852Z,2.70
2022-09-07T04:28:25.823Z,2.40
2022-09-07T04:30:55.040Z,2.70
2022-09-07T04:33:24.070Z,2.60
2022-09-07T04:35:53.156Z,1.90
2022-09-07T04:38:21.810Z,1.90
2022-09-07T04:40:50.747Z,2.10
2022-09-07T04:43:19.605Z,1.90
2022-09-07T04:45:48.727Z,2.00
2022-09-07T04:48:17.636Z,2.10
2022-09-07T04:50:46.689Z,1.60
2022-09-07T04:53:15.399Z,2.00
2022-09-07T04:55:44.615Z,1.60
2022-09-07T04:58:13.536Z,1.80
2022-09-07T05:00:44.509Z,2.10
2022-09-07T05:03:12.806Z,2.60
2022-09-07T05:05:41.764Z,1.90
2022-09-07T05:08:10.719Z,1.50
2022-09-07T05:10:40.251Z,2.20
2022-09-07T05:13:09.517Z,2.50
2022-09-07T05:15:38.117Z,1.80
2022-09-07T05:18:06.383Z,1.80
2022-09-07T05:20:35.444Z,3.40
2022-09-07T05:23:04.412Z,1.60
2022-09-07T05:25:33.697Z,1.80
2022-09-07T05:28:02.473Z,1.80
2022-09-07T05:33:21.126Z,2.80
2022-09-07T05:36:01.359Z,1.90
2022-09-07T05:38:30.900Z,1.70
2022-09-07T05:40:59.651Z,1.10
2022-09-07T05:43:28.493Z,1.80
2022-09-07T05:45:58.018Z,1.60
2022-09-07T05:48:26.299Z,1.70
2022-09-07T05:50:55.319Z,1.90
2022-09-07T05:53:24.279Z,1.40
2022-09-07T05:55:52.998Z,1.80
2022-09-07T05:58:21.832Z,2.30
2022-09-07T06:00:50.623Z,2.10
2022-09-07T06:03:19.928Z,1.40
2022-09-07T06:05:49.027Z,2.10
2022-09-07T06:08:18.117Z,2.90
2022-09-07T06:10:46.970Z,1.90
2022-09-07T06:13:15.654Z,2.20
2022-09-07T06:15:44.734Z,1.70
2022-09-07T06:18:13.807Z,1.70
2022-09-07T06:20:42.369Z,2.50
2022-09-07T06:23:11.288Z,1.90
2022-09-07T06:25:49.311Z,2.00
2022-09-07T06:28:18.870Z,4.00
2022-09-07T06:30:47.618Z,5.30
2022-09-07T06:33:19.589Z,3.70
2022-09-07T06:36:02.621Z,2.70
2022-09-07T06:38:33.929Z,2.50
2022-09-07T06:43:55.814Z,1.90
2022-09-07T06:49:15.868Z,1.60
2022-09-07T06:51:44.935Z,2.20
2022-09-07T06:57:09.522Z,1.40
2022-09-07T06:59:41.600Z,1.40
2022-09-07T07:02:12.063Z,1.50
2022-09-07T07:04:41.536Z,1.60
2022-09-07T07:07:14.520Z,1.90
2022-09-07T07:09:43.817Z,1.30
2022-09-07T07:12:12.806Z,1.00
2022-09-07T07:14:45.005Z,1.50
2022-09-07T07:17:14.526Z,1.10
2022-09-07T07:19:43.536Z,1.50
2022-09-07T07:22:36.096Z,1.90
2022-09-07T07:25:01.950Z,1.10
2022-09-07T07:27:31.922Z,1.10
2022-09-07T07:30:00.911Z,1.30
2022-09-07T07:32:29.830Z,1.30
2022-09-07T07:34:59.407Z,1.00
2022-09-07T07:37:28.439Z,1.10
2022-09-07T07:42:46.146Z,1.60
2022-09-07T07:48:03.674Z,1.40
2022-09-07T07:50:33.250Z,1.00
2022-09-07T07:55:53.162Z,1.40
2022-09-07T07:58:21.713Z,1.50
2022-09-07T08:00:54.664Z,1.40
2022-09-07T08:03:25.537Z,1.80
2022-09-07T08:05:55.423Z,1.30
2022-09-07T08:08:24.736Z,3.80
2022-09-07T08:10:53.261Z,2.00
2022-09-07T08:13:21.689Z,1.40
2022-09-07T08:15:49.853Z,1.60
2022-09-07T08:18:18.144Z,1.50
2022-09-07T08:20:47.063Z,0.80
2022-09-07T08:23:16.122Z,1.90
2022-09-07T08:25:55.192Z,1.80
2022-09-07T08:28:24.096Z,1.40
2022-09-07T08:30:52.464Z,1.30
2022-09-07T08:33:21.442Z,1.30
2022-09-07T08:36:04.039Z,1.50
2022-09-07T08:38:34.528Z,1.80
2022-09-07T08:41:22.677Z,3.40
2022-09-07T08:43:59.127Z,2.80
2022-09-07T08:46:41.162Z,2.50
2022-09-07T08:49:36.130Z,1.70
2022-09-07T08:52:11.129Z,1.10
2022-09-07T08:54:45.063Z,1.60
2022-09-07T08:57:21.515Z,2.40
2022-09-07T09:00:15.231Z,2.30
2022-09-07T09:02:45.616Z,1.20
2022-09-07T09:05:40.941Z,1.10
2022-09-07T09:08:27.276Z,1.00
2022-09-07T09:11:04.315Z,1.80
2022-09-07T09:13:52.388Z,2.30
2022-09-07T09:16:33.396Z,1.20
2022-09-07T09:19:36.088Z,1.60
2022-09-07T09:22:22.047Z,1.30
2022-09-07T09:25:05.860Z,1.10
2022-09-07T09:30:12.097Z,0.70
2022-09-07T09:32:43.461Z,0.50
2022-09-07T09:35:24.193Z,0.50
2022-09-07T09:37:53.122Z,0.60
2022-09-07T09:40:32.461Z,0.50
2022-09-07T09:43:08.433Z,0.60
2022-09-07T09:48:36.003Z,0.70
2022-09-07T09:54:34.283Z,0.50
2022-09-07T09:57:04.272Z,0.50
2022-09-07T10:05:40.250Z,0.70
2022-09-07T10:08:29.303Z,0.70
2022-09-07T10:11:14.500Z,0.40
2022-09-07T10:13:56.671Z,1.50
2022-09-07T10:16:42.294Z,1.40
2022-09-07T10:19:38.306Z,0.80
2022-09-07T10:22:36.248Z,0.60
2022-09-07T10:25:29.887Z,0.60
2022-09-07T10:28:17.492Z,0.80
2022-09-07T10:31:04.154Z,0.50
2022-09-07T10:33:32.578Z,0.80
2022-09-07T10:36:35.943Z,0.60
2022-09-07T10:39:14.905Z,0.80
2022-09-07T10:42:02.291Z,0.80
2022-09-07T10:44:45.754Z,0.60
2022-09-07T10:50:29.454Z,0.80
2022-09-07T10:53:40.769Z,0.70
2022-09-07T10:56:15.463Z,0.70
2022-09-07T10:59:04.214Z,0.60
2022-09-07T11:01:55.871Z,1.30
2022-09-07T11:04:40.822Z,1.30
2022-09-07T11:07:28.710Z,1.40
2022-09-07T11:10:04.347Z,1.10
2022-09-07T11:12:37.046Z,0.90
2022-09-07T11:15:18.271Z,1.00
2022-09-07T11:17:53.403Z,0.90
2022-09-07T11:20:28.740Z,0.70
2022-09-07T11:23:03.341Z,0.70
2022-09-07T11:25:47.611Z,0.30
2022-09-07T11:28:24.490Z,0.80
2022-09-07T11:31:02.598Z,0.60
2022-09-07T11:34:23.836Z,0.90
2022-09-07T11:37:01.885Z,1.60
2022-09-07T11:40:01.760Z,0.70
2022-09-07T11:42:53.091Z,1.30
2022-09-07T11:45:29.374Z,4.10
2022-09-07T11:48:19.591Z,0.90
2022-09-07T11:50:53.563Z,8.80
2022-09-07T11:56:03.931Z,15.20
2022-09-07T11:58:53.784Z,25.80
2022-09-07T12:02:04.596Z,43.20
2022-09-07T12:04:42.962Z,65.50
2022-09-07T12:07:36.262Z,81.30
2022-09-07T12:10:19.485Z,22.30
2022-09-07T12:12:51.311Z,3.60
2022-09-07T12:15:41.622Z,3.30
2022-09-07T12:18:37.093Z,1.30
2022-09-07T12:21:25.942Z,1.80
2022-09-07T12:23:56.981Z,1.10
2022-09-07T12:26:35.352Z,0.80
2022-09-07T12:29:17.899Z,0.90
2022-09-07T12:32:52.337Z,3.00
2022-09-07T12:34:52.476Z,1.60
2022-09-07T12:37:27.459Z,2.10
2022-09-07T12:40:30.649Z,1.70
2022-09-07T12:43:14.585Z,2.20
2022-09-07T12:45:42.632Z,4.50
2022-09-07T12:48:16.966Z,6.30
2022-09-07T12:50:57.612Z,12.30
2022-09-07T12:53:57.414Z,1.60
2022-09-07T12:57:28.988Z,37.60
2022-09-07T12:59:46.619Z,3.90
2022-09-07T13:02:52.815Z,3.50
2022-09-07T13:06:06.286Z,2.00
2022-09-07T13:09:05.341Z,13.90
2022-09-07T13:11:40.123Z,17.10
2022-09-07T13:14:15.888Z,2.80
2022-09-07T13:19:51.965Z,3.40
2022-09-07T13:22:36.124Z,24.40
2022-09-07T13:25:20.843Z,18.70
2022-09-07T13:27:58.792Z,5.70
2022-09-07T13:30:57.440Z,6.20
2022-09-07T13:33:27.409Z,1.90
2022-09-07T13:36:02.654Z,1.50
2022-09-07T13:38:35.554Z,1.70
2022-09-07T13:41:16.305Z,1.20
2022-09-07T13:43:57.217Z,1.70
2022-09-07T13:46:47.986Z,1.00
2022-09-07T13:49:56.643Z,0.70
2022-09-07T13:52:46.972Z,1.10
2022-09-07T13:55:46.306Z,1.80
2022-09-07T13:58:33.908Z,1.00
2022-09-07T14:01:15.298Z,0.90
2022-09-07T14:04:08.163Z,1.60
2022-09-07T14:06:39.013Z,1.20
2022-09-07T14:09:27.908Z,1.50
2022-09-07T14:11:56.801Z,1.00
2022-09-07T14:14:29.960Z,1.30
2022-09-07T14:17:04.698Z,1.00
2022-09-07T14:19:40.456Z,1.30
2022-09-07T14:22:14.992Z,1.70
2022-09-07T14:25:06.253Z,1.20
2022-09-07T14:27:37.707Z,1.00
2022-09-07T14:30:26.411Z,1.00
2022-09-07T14:33:00.857Z,0.90
2022-09-07T14:35:34.816Z,1.00
2022-09-07T14:41:20.786Z,1.90
2022-09-07T14:43:54.515Z,2.10
2022-09-07T14:46:37.962Z,0.80
2022-09-07T14:49:20.451Z,1.30
2022-09-07T14:51:51.015Z,1.00
2022-09-07T14:54:32.623Z,1.60
2022-09-07T14:57:07.014Z,1.10
2022-09-07T14:59:44.001Z,1.30
2022-09-07T15:02:18.313Z,1.90
2022-09-07T15:04:48.228Z,0.90
2022-09-07T15:07:29.947Z,0.70
2022-09-07T15:10:26.580Z,2.70
2022-09-07T15:13:01.773Z,3.90
2022-09-07T15:15:32.458Z,4.30
2022-09-07T15:18:09.008Z,4.20
2022-09-07T15:20:41.966Z,4.30
2022-09-07T15:23:14.528Z,1.70
2022-09-07T15:25:50.482Z,2.80
2022-09-07T15:34:16.002Z,1.20
2022-09-07T15:36:50.950Z,1.80
2022-09-07T15:39:25.769Z,1.20
2022-09-07T15:41:54.890Z,1.00
2022-09-07T15:44:26.497Z,0.90
2022-09-07T15:49:51.345Z,2.10
2022-09-07T15:52:21.004Z,1.20
2022-09-07T15:54:51.612Z,1.20
2022-09-07T16:00:11.195Z,0.80
2022-09-07T16:05:35.783Z,1.70
2022-09-07T16:10:56.451Z,4.90
2022-09-07T16:13:34.249Z,8.10
2022-09-07T16:16:05.912Z,11.10
2022-09-07T16:18:35.821Z,15.40
2022-09-07T16:21:15.642Z,24.80
2022-09-07T16:23:50.781Z,27.60
2022-09-07T16:26:22.125Z,32.10
2022-09-07T16:28:53.194Z,35.70
2022-09-07T16:31:27.560Z,40.40
2022-09-07T16:33:56.731Z,34.20
2022-09-07T16:36:25.862Z,31.50
2022-09-07T16:38:59.975Z,22.60
2022-09-07T16:41:35.162Z,19.60
2022-09-07T16:44:04.152Z,20.10
2022-09-07T16:46:35.849Z,14.60
2022-09-07T16:49:07.696Z,9.60
2022-09-07T16:51:36.280Z,6.60
2022-09-07T16:54:05.684Z,5.70
2022-09-07T16:56:38.778Z,5.00
2022-09-07T17:01:39.198Z,5.20
2022-09-07T17:04:11.615Z,3.90
2022-09-07T17:06:41.255Z,5.10
2022-09-07T17:09:13.332Z,5.30
2022-09-07T17:11:42.843Z,3.00
2022-09-07T17:14:13.661Z,4.90
2022-09-07T17:16:43.572Z,2.90
2022-09-07T17:19:30.287Z,2.30
2022-09-07T17:22:01.679Z,3.50
2022-09-07T17:24:32.178Z,8.50
2022-09-07T17:27:01.347Z,14.50
2022-09-07T17:29:38.477Z,14.40
2022-09-07T17:32:24.523Z,10.30
2022-09-07T17:34:55.773Z,9.50
2022-09-07T17:37:27.476Z,6.60
2022-09-07T17:39:56.899Z,14.30
2022-09-07T17:43:38.758Z,20.30
2022-09-07T17:45:17.489Z,15.40
2022-09-07T17:47:45.877Z,10.10
2022-09-07T17:50:14.953Z,7.00
2022-09-07T17:52:45.992Z,7.70
2022-09-07T17:55:15.305Z,9.90
2022-09-07T17:57:43.606Z,7.00
2022-09-07T18:00:13.059Z,7.20
2022-09-07T18:02:42.913Z,6.70
2022-09-07T18:05:12.878Z,7.80
2022-09-07T18:07:41.488Z,7.40
2022-09-07T18:10:10.221Z,6.20
2022-09-07T18:12:38.868Z,5.10
2022-09-07T18:15:08.120Z,6.90
2022-09-07T18:17:36.338Z,5.80
2022-09-07T18:20:04.956Z,5.90
2022-09-07T18:22:34.590Z,5.90
2022-09-07T18:25:03.508Z,5.60
2022-09-07T18:27:31.901Z,5.80
2022-09-07T18:30:01.398Z,5.80
2022-09-07T18:32:31.967Z,5.60
2022-09-07T18:35:00.913Z,6.40
2022-09-07T18:37:31.494Z,6.30
2022-09-07T18:40:00.206Z,5.30
2022-09-07T18:42:30.139Z,4.90
2022-09-07T18:47:47.695Z,6.50
2022-09-07T18:50:17.063Z,6.50
2022-09-07T18:52:53.249Z,4.10
2022-09-07T18:55:23.943Z,4.50
2022-09-07T18:57:52.118Z,6.20
2022-09-07T19:00:20.428Z,5.20
2022-09-07T19:02:52.261Z,5.20
2022-09-07T19:08:10.691Z,3.20
2022-09-07T19:10:39.433Z,3.30
2022-09-07T19:13:08.142Z,2.40
2022-09-07T19:15:37.648Z,2.10
2022-09-07T19:18:08.083Z,2.30
2022-09-07T19:20:40.632Z,2.20
2022-09-07T19:23:09.555Z,2.20
2022-09-07T19:25:41.163Z,1.90
2022-09-07T19:28:09.558Z,2.30
2022-09-07T19:30:38.103Z,2.70
2022-09-07T19:33:10.343Z,2.80
2022-09-07T19:35:39.330Z,3.60
2022-09-07T19:38:08.361Z,4.60
2022-09-07T19:40:36.479Z,2.90
2022-09-07T19:43:04.858Z,2.20
2022-09-07T19:45:37.047Z,2.70
2022-09-07T19:48:05.725Z,2.30
2022-09-07T19:50:33.961Z,2.90
2022-09-07T19:53:02.747Z,2.70
2022-09-07T19:55:31.669Z,2.80
2022-09-07T19:58:00.536Z,4.00
2022-09-07T20:00:29.910Z,3.30
2022-09-07T20:02:58.712Z,2.90
2022-09-07T20:05:32.334Z,2.60
2022-09-07T20:08:01.898Z,2.70
2022-09-07T20:10:32.528Z,2.20
2022-09-07T20:13:00.919Z,2.50
2022-09-07T20:15:30.202Z,2.00
2022-09-07T20:17:59.633Z,2.40
2022-09-07T20:20:28.204Z,2.40
2022-09-07T20:22:56.373Z,1.90
2022-09-07T20:25:25.480Z,1.80
2022-09-07T20:27:53.795Z,2.00
2022-09-07T20:30:24.536Z,1.70
2022-09-07T20:32:53.064Z,2.00
2022-09-07T20:35:21.804Z,1.70
2022-09-07T20:37:51.288Z,1.80
2022-09-07T20:40:20.092Z,2.00
2022-09-07T20:42:48.521Z,2.30
2022-09-07T20:45:16.818Z,2.40
2022-09-07T20:47:45.957Z,2.20
2022-09-07T20:50:14.755Z,2.70
2022-09-07T20:52:43.365Z,2.60
2022-09-07T20:55:11.881Z,2.60
2022-09-07T20:57:40.448Z,3.20
2022-09-07T21:00:09.410Z,3.50
2022-09-07T21:02:37.987Z,3.10
2022-09-07T21:05:08.202Z,3.40
2022-09-07T21:07:39.882Z,3.50
2022-09-07T21:10:10.073Z,3.40
2022-09-07T21:12:39.102Z,4.10
2022-09-07T21:15:09.875Z,4.50
2022-09-07T21:17:39.019Z,3.50
2022-09-07T21:20:08.345Z,4.80
2022-09-07T21:22:38.593Z,3.20
2022-09-07T21:25:07.942Z,3.10
2022-09-07T21:27:39.010Z,2.90
2022-09-07T21:30:08.105Z,3.60
2022-09-07T21:32:36.494Z,4.40
2022-09-07T21:35:05.591Z,3.80
2022-09-07T21:37:34.691Z,3.20
2022-09-07T21:40:06.550Z,3.60
2022-09-07T21:42:35.523Z,3.90
2022-09-07T21:45:07.761Z,3.80
2022-09-07T21:47:36.816Z,4.20
2022-09-07T21:50:06.374Z,3.80
2022-09-07T21:52:35.463Z,3.60
2022-09-07T21:55:04.669Z,3.60
2022-09-07T21:57:33.847Z,3.60
2022-09-07T22:00:03.239Z,3.80
2022-09-07T22:02:41.149Z,3.80
2022-09-07T22:05:10.524Z,3.50
2022-09-07T22:07:39.587Z,3.80
2022-09-07T22:10:09.894Z,3.10
2022-09-07T22:12:38.878Z,3.20
2022-09-07T22:15:07.861Z,3.10
2022-09-07T22:17:36.638Z,3.40
2022-09-07T22:20:06.136Z,3.40
2022-09-07T22:22:34.715Z,3.20
2022-09-07T22:25:03.376Z,3.40
2022-09-07T22:27:32.408Z,4.30
2022-09-07T22:30:01.107Z,3.90
2022-09-07T22:32:30.074Z,3.10
2022-09-07T22:34:58.801Z,3.30
2022-09-07T22:37:27.590Z,4.00
2022-09-07T22:39:56.556Z,3.20
2022-09-07T22:42:25.470Z,3.10
2022-09-07T22:44:54.317Z,3.10
2022-09-07T22:47:23.329Z,2.90
2022-09-07T22:49:52.105Z,3.40
2022-09-07T22:52:20.975Z,2.60
2022-09-07T22:54:49.867Z,3.00
2022-09-07T22:57:19.385Z,2.80
2022-09-07T22:59:48.228Z,2.70
